Flugplatz Baltrum

Für EDWZ sind keine METAR/TAF Berichte vorhanden.
Es werden die Flugwettermeldungen vom Flugplatz Wittmundhafen Airport in 27 km Entfernung angezeigt.

Bericht für ETNT

vom 14.12. um 00:20 UTC

Wind 9 kt aus 210°

Sichtweite 7000 m

aufgebrochene Bewölkung in 600 ft

aufgebrochene Bewölkung in 2200 ft

Temperatur 4.0°C

Taupunkt 4.0°C

Luftfeuchtigkeit 100%

Luftdruck 980 hPa

ETNT 140020Z 21009KT 7000 BKN006 BKN022 04/04 Q0980 YLO

Prognose für ETNT

vom 13.12. um 00:00 UTC

Zwischen 00:00 UTC und 00:00 UTC

Wind 12 kt aus 210°

Sichtweite 5000 m

feuchter Dunst

aufgebrochene Bewölkung in 700 ft


Zwischen 00:00 UTC und 00:00 UTC zeitweise

Wind 15 kt aus 210°

Sichtweite 3000 m

schwacher Regen

schwacher Sprühregen

aufgebrochene Bewölkung in 200 ft

TAF ETNT 132300Z 1400/1409 21012KT 5000 BR BKN007 TEMPO 1400/1408 21015KT 3000 -RADZ BKN002 BY ETGL
Impressum